Argyle, TX

1:35 PM CDT on October 31, 2014 (GMT -0500)
Canyon Oaks | Change Station
CLOSE
Current Station
Personal Weather Station
Location: Argyle, TX
Elevation: 646 ft
Nearby Weather Stations
Active Advisory: Freeze Warning

Elev 646 ft 33.08 °N, 97.12 °W | Updated 12 seconds ago

Clear
Clear
65.0 °F
Feels Like 65.0 °F
N
0.0
Wind Variable Wind from East
Gusts 3.0 mph

Today
High -- | Low -- °F
--% Chance of Precip.
Yesterday
High -- | Low -- °F
Precip. -- in
7:45 AM 6:37 PM
First Quarter, 57% visible
Pressure 30.34 in
Visibility 10.0 miles
Clouds Clear
Dew Point 46 °F
Humidity 50%
Rainfall 0.00 in
Snow Depth Not available.
UV 6 out of 12
Pollen 4.00 out of 12
Air Quality Not available.
Flu Activity Not available.
METAR KDTO 311753Z 02017G22KT 10SM CLR 17/04 A3035 RMK AO2 SLP274 T01720044 10172 20089 50005

More Conditions Fewer Conditions

Pressure 30.34 in
Visibility 10.0 miles
Clouds Clear
Dew Point 46 °F
Humidity 50%
Rainfall 0.00 in
Snow Depth Not available.
UV 6 out of 12
Pollen 4.00 out of 12
Air Quality Not available.
Flu Activity Not available.
METAR KDTO 311753Z 02017G22KT 10SM CLR 17/04 A3035 RMK AO2 SLP274 T01720044 10172 20089 50005

More Conditions Fewer Conditions

10-Day Weather Forecast

Almanac

Astronomy

Oct. 31, 2014 Rise Set
Actual Time
Civil Twilight
Nautical Twilight
Astronomical Twilight
Moon
Length of Visible Light
Length of Day
Tomorrow will be .
, % of the Moon is Illuminated

Today's Extremes

State Highs State Lows

Community

WunderPhotos

Upload Photos

1,766,690 photos uploaded!

WunderBlogs® & News

Nearby

Air Quality

  Air Quality AQ Index Pollutant
Not available.

Snow Depth

Station Depth Elevation

Earthquake Activity

City Distance Mag. Time & Date
Minimum magnitude displayed is 2.5.

Coastal Water Temperatures

Place Temperature

Nearby Weather Stations